createdAt,value
2023-04-10T00:02:23.288Z,37.66
2023-04-10T00:04:52.348Z,37.58
2023-04-10T00:07:22.961Z,37.59
2023-04-10T00:09:52.286Z,37.60
2023-04-10T00:12:22.376Z,37.54
2023-04-10T00:14:51.331Z,38.80
2023-04-10T00:17:23.551Z,38.92
2023-04-10T00:19:53.575Z,38.87
2023-04-10T00:22:24.224Z,38.82
2023-04-10T00:24:55.019Z,38.73
2023-04-10T00:27:23.683Z,38.67
2023-04-10T00:29:51.776Z,38.56
2023-04-10T00:32:21.861Z,38.54
2023-04-10T00:34:51.071Z,38.47
2023-04-10T00:37:24.459Z,38.36
2023-04-10T00:39:55.085Z,38.41
2023-04-10T00:42:26.290Z,38.26
2023-04-10T00:44:55.817Z,38.10
2023-04-10T00:47:24.695Z,36.82
2023-04-10T00:49:55.205Z,36.51
2023-04-10T00:52:26.148Z,36.44
2023-04-10T00:54:55.531Z,37.36
2023-04-10T00:57:23.794Z,36.61
2023-04-10T00:59:53.692Z,36.18
2023-04-10T01:02:25.197Z,37.06
2023-04-10T01:04:55.662Z,37.28
2023-04-10T01:07:46.074Z,37.68
2023-04-10T01:10:56.139Z,36.90
2023-04-10T01:13:43.600Z,36.34
2023-04-10T01:16:27.746Z,35.90
2023-04-10T01:19:15.414Z,37.02
2023-04-10T01:21:44.498Z,36.66
2023-04-10T01:24:24.055Z,36.05
2023-04-10T01:27:11.799Z,35.67
2023-04-10T01:29:48.597Z,35.40
2023-04-10T01:32:22.338Z,35.31
2023-04-10T01:34:53.837Z,36.46
2023-04-10T01:37:28.304Z,35.63
2023-04-10T01:40:03.805Z,35.23
2023-04-10T01:42:35.278Z,35.05
2023-04-10T01:45:10.896Z,35.00
2023-04-10T01:47:48.244Z,34.74
2023-04-10T01:50:23.427Z,34.53
2023-04-10T01:53:02.036Z,34.40
2023-04-10T01:55:41.824Z,34.38
2023-04-10T01:58:16.508Z,34.36
2023-04-10T02:00:50.779Z,34.35
2023-04-10T02:03:24.638Z,34.33
2023-04-10T02:06:24.090Z,34.49
2023-04-10T02:09:19.612Z,34.38
2023-04-10T02:12:06.038Z,34.14
2023-04-10T02:14:49.048Z,35.79
2023-04-10T02:17:35.352Z,34.68
2023-04-10T02:20:11.050Z,34.16
2023-04-10T02:22:54.413Z,34.05
2023-04-10T02:25:28.353Z,33.89
2023-04-10T02:28:10.762Z,33.83
2023-04-10T02:30:44.100Z,33.78
2023-04-10T02:33:16.215Z,33.67
2023-04-10T02:35:50.283Z,33.60
2023-04-10T02:38:24.079Z,33.61
2023-04-10T02:40:59.384Z,33.67
2023-04-10T02:43:39.915Z,33.61
2023-04-10T02:46:12.585Z,33.59
2023-04-10T02:48:46.876Z,33.36
2023-04-10T02:51:16.319Z,33.29
2023-04-10T02:53:50.349Z,33.22
2023-04-10T02:56:39.330Z,34.30
2023-04-10T02:59:09.542Z,33.48
2023-04-10T03:01:42.383Z,33.23
2023-04-10T03:04:11.893Z,33.81
2023-04-10T03:06:45.109Z,33.07
2023-04-10T03:09:15.449Z,33.15
2023-04-10T03:11:44.874Z,32.92
2023-04-10T03:14:16.435Z,32.72
2023-04-10T03:16:49.672Z,32.74
2023-04-10T03:19:23.211Z,32.54
2023-04-10T03:22:12.160Z,32.66
2023-04-10T03:24:46.703Z,32.99
2023-04-10T03:27:19.879Z,33.05
2023-04-10T03:29:50.313Z,33.02
2023-04-10T03:32:22.234Z,32.94
2023-04-10T03:34:52.114Z,32.77
2023-04-10T03:37:23.732Z,32.58
2023-04-10T03:39:53.136Z,32.73
2023-04-10T03:42:22.912Z,32.84
2023-04-10T03:44:52.564Z,32.29
2023-04-10T03:47:24.537Z,32.01
2023-04-10T03:49:56.461Z,31.89
2023-04-10T03:52:37.038Z,31.87
2023-04-10T03:55:16.012Z,31.86
2023-04-10T03:57:50.399Z,31.85
2023-04-10T04:00:23.454Z,31.84
2023-04-10T04:03:07.302Z,31.79
2023-04-10T04:06:04.748Z,31.76
2023-04-10T04:08:56.344Z,31.69
2023-04-10T04:11:44.948Z,32.66
2023-04-10T04:14:35.022Z,32.30
2023-04-10T04:17:27.803Z,31.58
2023-04-10T04:20:11.694Z,31.42
2023-04-10T04:22:54.271Z,31.33
2023-04-10T04:25:46.529Z,31.27
2023-04-10T04:28:36.643Z,31.24
2023-04-10T04:31:35.857Z,31.42
2023-04-10T04:34:17.211Z,31.34
2023-04-10T04:37:12.247Z,31.34
2023-04-10T04:40:07.383Z,31.38
2023-04-10T04:43:26.238Z,31.43
2023-04-10T04:46:25.055Z,31.40
2023-04-10T04:49:14.878Z,31.18
2023-04-10T04:51:51.596Z,31.11
2023-04-10T04:54:52.743Z,31.17
2023-04-10T04:57:43.269Z,31.16
2023-04-10T05:00:38.792Z,31.28
2023-04-10T05:03:16.549Z,31.21
2023-04-10T05:06:23.851Z,31.26
2023-04-10T05:09:12.516Z,31.20
2023-04-10T05:12:08.267Z,31.16
2023-04-10T05:14:51.194Z,31.09
2023-04-10T05:17:42.850Z,31.12
2023-04-10T05:20:47.522Z,31.29
2023-04-10T05:23:41.279Z,31.12
2023-04-10T05:26:36.371Z,31.71
2023-04-10T05:29:26.229Z,31.84
2023-04-10T05:32:19.599Z,31.40
2023-04-10T05:35:10.412Z,31.33
2023-04-10T05:37:52.671Z,31.04
2023-04-10T05:40:54.761Z,30.96
2023-04-10T05:43:47.839Z,30.85
2023-04-10T05:46:40.868Z,30.97
2023-04-10T05:49:45.859Z,31.01
2023-04-10T05:52:35.758Z,30.92
2023-04-10T05:55:40.538Z,30.96
2023-04-10T05:58:37.517Z,30.98
2023-04-10T06:01:37.080Z,30.90
2023-04-10T06:04:10.213Z,31.33
2023-04-10T06:06:48.201Z,30.85
2023-04-10T06:09:22.738Z,30.71
2023-04-10T06:11:52.803Z,30.72
2023-04-10T06:14:34.082Z,30.75
2023-04-10T06:17:19.818Z,30.77
2023-04-10T06:19:52.524Z,30.65
2023-04-10T06:22:24.204Z,30.71
2023-04-10T06:24:54.795Z,30.57
2023-04-10T06:27:24.457Z,30.54
2023-04-10T06:29:56.259Z,30.40
2023-04-10T06:32:31.784Z,31.44
2023-04-10T06:35:07.366Z,30.72
2023-04-10T06:37:37.534Z,31.27
2023-04-10T06:40:20.061Z,31.57
2023-04-10T06:42:50.590Z,31.71
2023-04-10T06:45:41.623Z,31.57
2023-04-10T06:48:12.818Z,31.59
2023-04-10T06:50:44.986Z,31.44
2023-04-10T06:53:16.430Z,31.52
2023-04-10T06:55:48.611Z,31.48
2023-04-10T06:58:22.459Z,31.42
2023-04-10T07:00:51.895Z,30.95
2023-04-10T07:03:22.735Z,31.17
2023-04-10T07:05:52.448Z,31.18
2023-04-10T07:08:22.781Z,31.18
2023-04-10T07:10:52.439Z,31.25
2023-04-10T07:13:22.520Z,31.18
2023-04-10T07:15:52.575Z,31.15
2023-04-10T07:18:23.889Z,31.24
2023-04-10T07:20:55.418Z,31.20
2023-04-10T07:23:26.109Z,31.21
2023-04-10T07:25:56.339Z,31.09
2023-04-10T07:28:31.062Z,30.99
2023-04-10T07:31:05.902Z,30.98
2023-04-10T07:33:52.572Z,30.93
2023-04-10T07:36:23.007Z,30.93
2023-04-10T07:38:53.148Z,30.83
2023-04-10T07:41:24.841Z,30.85
2023-04-10T07:43:56.470Z,30.77
2023-04-10T07:46:35.628Z,31.03
2023-04-10T07:49:08.542Z,30.89
2023-04-10T07:51:40.934Z,30.87
2023-04-10T07:54:15.596Z,30.64
2023-04-10T07:56:44.497Z,30.66
2023-04-10T07:59:15.713Z,30.64
2023-04-10T08:01:45.280Z,30.43
2023-04-10T08:04:18.932Z,30.45
2023-04-10T08:06:51.152Z,30.39
2023-04-10T08:09:27.074Z,30.37
2023-04-10T08:12:04.742Z,30.42
2023-04-10T08:14:39.408Z,30.43
2023-04-10T08:17:15.769Z,30.24
2023-04-10T08:19:46.461Z,30.17
2023-04-10T08:22:19.135Z,30.03
2023-04-10T08:24:49.867Z,29.97
2023-04-10T08:27:23.835Z,29.96
2023-04-10T08:29:54.426Z,29.95
2023-04-10T08:32:28.783Z,29.87
2023-04-10T08:35:04.744Z,30.13
2023-04-10T08:37:35.189Z,30.01
2023-04-10T08:40:07.275Z,29.83
2023-04-10T08:42:42.717Z,29.80
2023-04-10T08:45:12.694Z,29.80
2023-04-10T08:47:46.985Z,29.68
2023-04-10T08:50:20.771Z,29.44
2023-04-10T08:52:54.682Z,28.81
2023-04-10T08:55:24.248Z,28.39
2023-04-10T08:58:00.963Z,28.24
2023-04-10T09:00:41.338Z,29.09
2023-04-10T09:03:16.252Z,29.17
2023-04-10T09:05:46.716Z,28.43
2023-04-10T09:08:17.844Z,28.26
2023-04-10T09:10:48.089Z,28.14
2023-04-10T09:13:42.162Z,28.22
2023-04-10T09:16:15.670Z,28.15
2023-04-10T09:18:52.462Z,28.02
2023-04-10T09:21:24.559Z,28.09
2023-04-10T09:24:04.583Z,28.11
2023-04-10T09:26:37.307Z,28.18
2023-04-10T09:29:12.895Z,28.07
2023-04-10T09:31:44.900Z,28.12
2023-04-10T09:34:28.017Z,27.94
2023-04-10T09:37:05.287Z,27.90
2023-04-10T09:39:43.558Z,27.85
2023-04-10T09:42:15.098Z,27.78
2023-04-10T09:44:46.910Z,27.70
2023-04-10T09:47:22.785Z,27.81
2023-04-10T09:49:56.202Z,27.89
2023-04-10T09:52:35.743Z,27.81
2023-04-10T09:55:11.523Z,28.13
2023-04-10T09:57:47.511Z,27.90
2023-04-10T10:00:19.753Z,27.85
2023-04-10T10:02:52.572Z,27.79
2023-04-10T10:05:31.043Z,27.84
2023-04-10T10:08:03.892Z,27.81
2023-04-10T10:10:44.236Z,27.79
2023-04-10T10:13:36.311Z,27.87
2023-04-10T10:16:47.855Z,28.13
2023-04-10T10:19:43.015Z,28.01
2023-04-10T10:22:16.630Z,27.95
2023-04-10T10:24:50.481Z,27.92
2023-04-10T10:27:21.998Z,27.78
2023-04-10T10:29:56.403Z,27.59
2023-04-10T10:32:38.689Z,27.51
2023-04-10T10:35:12.761Z,27.45
2023-04-10T10:37:48.967Z,27.47
2023-04-10T10:40:44.665Z,27.45
2023-04-10T10:43:38.734Z,27.68
2023-04-10T10:46:19.629Z,27.65
2023-04-10T10:49:08.989Z,27.64
2023-04-10T10:51:50.063Z,27.63
2023-04-10T10:54:35.123Z,27.59
2023-04-10T10:57:10.962Z,27.50
2023-04-10T10:59:51.132Z,27.47
2023-04-10T11:02:22.492Z,27.41
2023-04-10T11:04:55.409Z,27.39
2023-04-10T11:08:05.784Z,27.56
2023-04-10T11:11:14.114Z,27.56
2023-04-10T11:14:04.979Z,27.46
2023-04-10T11:16:43.971Z,27.42
2023-04-10T11:19:16.961Z,27.36
2023-04-10T11:22:06.458Z,27.46
2023-04-10T11:25:04.070Z,27.59
2023-04-10T11:27:52.434Z,27.75
2023-04-10T11:30:34.443Z,27.68
2023-04-10T11:33:11.062Z,27.71
2023-04-10T11:35:44.000Z,27.68
2023-04-10T11:38:19.938Z,27.86
2023-04-10T11:41:04.699Z,27.93
2023-04-10T11:43:38.635Z,27.95
2023-04-10T11:46:10.396Z,28.03
2023-04-10T11:48:42.899Z,28.11
2023-04-10T11:51:16.647Z,29.14
2023-04-10T11:53:49.053Z,28.49
2023-04-10T11:56:24.566Z,28.39
2023-04-10T11:59:00.579Z,28.43
2023-04-10T12:01:33.105Z,28.51
2023-04-10T12:04:07.103Z,28.61
2023-04-10T12:06:38.288Z,28.70
2023-04-10T12:09:22.593Z,28.98
2023-04-10T12:11:52.525Z,29.18
2023-04-10T12:14:26.470Z,29.32
2023-04-10T12:16:57.101Z,29.53
2023-04-10T12:19:38.826Z,29.79
2023-04-10T12:22:14.715Z,30.06
2023-04-10T12:24:47.343Z,30.24
2023-04-10T12:27:31.420Z,30.50
2023-04-10T12:30:10.118Z,30.75
2023-04-10T12:32:43.025Z,30.94
2023-04-10T12:35:12.587Z,31.12
2023-04-10T12:37:51.868Z,31.36
2023-04-10T12:40:22.985Z,31.51
2023-04-10T12:42:53.114Z,31.68
2023-04-10T12:45:46.573Z,32.19
2023-04-10T12:48:27.233Z,32.38
2023-04-10T12:51:05.122Z,32.75
2023-04-10T12:53:48.185Z,32.97
2023-04-10T12:56:20.911Z,33.03
2023-04-10T12:59:09.016Z,33.20
2023-04-10T13:02:10.728Z,33.86
2023-04-10T13:04:42.715Z,33.81
2023-04-10T13:07:13.048Z,33.89
2023-04-10T13:11:16.194Z,34.45
2023-04-10T13:13:48.577Z,34.64
2023-04-10T13:16:20.011Z,34.63
2023-04-10T13:18:50.530Z,34.76
2023-04-10T13:21:23.737Z,34.86
2023-04-10T13:23:54.397Z,35.01
2023-04-10T13:26:25.818Z,35.13
2023-04-10T13:29:04.283Z,35.24
2023-04-10T13:37:22.933Z,36.35
2023-04-10T13:40:07.886Z,36.35
2023-04-10T13:42:40.563Z,36.26
2023-04-10T13:45:11.438Z,36.26
2023-04-10T13:47:40.533Z,36.17
2023-04-10T13:50:10.352Z,36.18
2023-04-10T13:52:39.929Z,36.17
2023-04-10T13:55:10.091Z,36.22
2023-04-10T13:57:39.857Z,36.35
2023-04-10T14:00:10.107Z,36.48
2023-04-10T14:02:44.229Z,36.54
2023-04-10T14:05:16.399Z,36.62
2023-04-10T14:07:52.459Z,36.74
2023-04-10T14:10:22.342Z,36.73
2023-04-10T14:12:51.810Z,36.86
2023-04-10T14:15:20.540Z,36.82
2023-04-10T14:17:50.521Z,36.93
2023-04-10T14:20:19.716Z,37.03
2023-04-10T14:22:48.438Z,37.12
2023-04-10T14:25:18.320Z,37.26
2023-04-10T14:27:47.726Z,37.40
2023-04-10T14:30:16.595Z,37.31
2023-04-10T14:32:46.308Z,37.35
2023-04-10T14:35:15.395Z,37.45
2023-04-10T14:37:44.876Z,37.42
2023-04-10T14:40:14.288Z,37.54
2023-04-10T14:42:42.861Z,37.79
2023-04-10T14:45:12.692Z,37.94
2023-04-10T14:47:42.886Z,37.93
2023-04-10T14:50:12.488Z,38.84
2023-04-10T14:52:42.029Z,38.37
2023-04-10T14:55:11.810Z,38.59
2023-04-10T14:57:40.604Z,38.58
2023-04-10T15:00:11.383Z,38.61
2023-04-10T15:02:41.925Z,38.79
2023-04-10T15:05:11.537Z,39.92
2023-04-10T15:08:36.429Z,39.77
2023-04-10T15:11:28.021Z,39.06
2023-04-10T15:14:36.234Z,39.03
2023-04-10T15:17:05.116Z,38.92
2023-04-10T15:19:35.305Z,40.06
2023-04-10T15:22:04.583Z,40.22
2023-04-10T15:24:46.929Z,40.45
2023-04-10T15:27:22.283Z,40.69
2023-04-10T15:29:51.477Z,40.48
2023-04-10T15:32:20.285Z,40.50
2023-04-10T15:34:49.270Z,40.58
2023-04-10T15:37:31.524Z,40.59
2023-04-10T15:40:12.581Z,40.76
2023-04-10T15:42:42.072Z,40.66
2023-04-10T15:45:11.009Z,40.68
2023-04-10T15:47:40.760Z,40.82
2023-04-10T15:50:11.696Z,40.85
2023-04-10T15:52:41.656Z,40.89
2023-04-10T15:55:10.433Z,40.89
2023-04-10T15:57:39.759Z,41.00
2023-04-10T16:00:09.024Z,41.15
2023-04-10T16:02:50.495Z,41.28
2023-04-10T16:05:24.728Z,41.51
2023-04-10T16:07:55.458Z,41.58
2023-04-10T16:10:24.946Z,41.54
2023-04-10T16:13:04.744Z,41.73
2023-04-10T16:15:39.443Z,42.01
2023-04-10T16:18:09.102Z,41.86
2023-04-10T16:20:39.381Z,41.59
2023-04-10T16:23:09.332Z,41.66
2023-04-10T16:25:38.147Z,41.64
2023-04-10T16:28:10.203Z,41.64
2023-04-10T16:30:40.989Z,41.61
2023-04-10T16:33:11.996Z,41.72
2023-04-10T16:35:42.599Z,40.69
2023-04-10T16:38:12.590Z,40.66
2023-04-10T16:40:42.561Z,40.36
2023-04-10T16:43:11.853Z,40.38
2023-04-10T16:45:42.442Z,40.43
2023-04-10T16:48:11.796Z,40.57
2023-04-10T16:50:42.794Z,40.92
2023-04-10T16:53:12.247Z,40.66
2023-04-10T16:55:42.938Z,40.67
2023-04-10T16:58:12.324Z,40.66
2023-04-10T17:00:42.243Z,40.66
2023-04-10T17:03:11.588Z,40.73
2023-04-10T17:05:44.161Z,40.83
2023-04-10T17:08:13.259Z,40.95
2023-04-10T17:10:43.697Z,41.50
2023-04-10T17:13:12.697Z,41.47
2023-04-10T17:15:42.909Z,41.26
2023-04-10T17:18:13.991Z,41.27
2023-04-10T17:20:44.245Z,41.24
2023-04-10T17:23:14.931Z,41.27
2023-04-10T17:25:44.867Z,41.20
2023-04-10T17:28:15.827Z,41.94
2023-04-10T17:30:46.487Z,41.33
2023-04-10T17:33:15.401Z,41.37
2023-04-10T17:35:45.191Z,41.41
2023-04-10T17:38:14.821Z,41.43
2023-04-10T17:40:46.407Z,41.46
2023-04-10T17:43:16.735Z,41.57
2023-04-10T17:45:47.225Z,41.65
2023-04-10T17:48:16.720Z,41.73
2023-04-10T17:50:47.570Z,41.77
2023-04-10T17:53:16.761Z,43.13
2023-04-10T17:55:48.735Z,42.69
2023-04-10T17:58:18.480Z,42.26
2023-04-10T18:00:50.664Z,42.20
2023-04-10T18:03:19.859Z,42.11
2023-04-10T18:05:49.151Z,42.19
2023-04-10T18:08:19.165Z,42.20
2023-04-10T18:10:49.690Z,42.27
2023-04-10T18:13:19.327Z,42.28
2023-04-10T18:15:48.660Z,42.30
2023-04-10T18:18:18.914Z,42.45
2023-04-10T18:20:48.253Z,42.37
2023-04-10T18:23:16.653Z,42.29
2023-04-10T18:25:55.426Z,42.46
2023-04-10T18:28:24.925Z,42.23
2023-04-10T18:30:57.181Z,42.26
2023-04-10T18:33:29.297Z,42.35
2023-04-10T18:36:01.205Z,42.25
2023-04-10T18:38:34.567Z,42.35
2023-04-10T18:41:04.104Z,42.48
2023-04-10T18:43:32.873Z,42.36
2023-04-10T18:46:03.635Z,42.34
2023-04-10T18:48:36.480Z,43.15
2023-04-10T18:51:07.775Z,44.03
2023-04-10T18:53:37.251Z,43.93
2023-04-10T18:56:07.978Z,43.88
2023-04-10T18:58:38.254Z,43.89
2023-04-10T19:01:08.339Z,43.91
2023-04-10T19:03:38.810Z,42.77
2023-04-10T19:06:10.377Z,42.90
2023-04-10T19:08:39.934Z,43.21
2023-04-10T19:11:10.536Z,43.23
2023-04-10T19:13:39.906Z,43.22
2023-04-10T19:16:12.884Z,43.23
2023-04-10T19:18:43.161Z,43.27
2023-04-10T19:21:12.534Z,43.08
2023-04-10T19:23:41.816Z,42.78
2023-04-10T19:26:16.443Z,42.87
2023-04-10T19:28:48.105Z,42.52
2023-04-10T19:31:16.498Z,42.35
2023-04-10T19:33:45.554Z,42.63
2023-04-10T19:36:16.930Z,42.66
2023-04-10T19:38:49.672Z,42.57
2023-04-10T19:41:20.812Z,42.53
2023-04-10T19:43:53.316Z,42.25
2023-04-10T19:46:24.035Z,42.28
2023-04-10T19:48:55.374Z,42.35
2023-04-10T19:51:24.828Z,42.32
2023-04-10T19:53:56.155Z,42.29
2023-04-10T19:56:28.565Z,42.23
2023-04-10T19:59:00.108Z,42.23
2023-04-10T20:01:29.777Z,42.22
2023-04-10T20:03:59.800Z,42.26
2023-04-10T20:06:30.395Z,42.29
2023-04-10T20:08:59.725Z,42.31
2023-04-10T20:11:32.668Z,42.38
2023-04-10T20:14:02.783Z,42.38
2023-04-10T20:16:33.464Z,42.31
2023-04-10T20:19:02.828Z,42.21
2023-04-10T20:21:33.702Z,42.26
2023-04-10T20:24:03.384Z,42.20
2023-04-10T20:26:32.494Z,43.42
2023-04-10T20:29:02.685Z,42.66
2023-04-10T20:31:34.641Z,42.22
2023-04-10T20:34:21.000Z,41.99
2023-04-10T20:37:14.542Z,41.99
2023-04-10T20:39:44.624Z,42.10
2023-04-10T20:42:14.746Z,41.95
2023-04-10T20:44:44.251Z,42.05
2023-04-10T20:47:15.538Z,42.22
2023-04-10T20:49:44.820Z,42.45
2023-04-10T20:52:16.482Z,42.35
2023-04-10T20:54:45.213Z,42.32
2023-04-10T20:57:15.548Z,42.24
2023-04-10T20:59:46.979Z,42.25
2023-04-10T21:02:18.551Z,42.15
2023-04-10T21:04:47.740Z,42.36
2023-04-10T21:07:18.259Z,42.30
2023-04-10T21:09:48.707Z,42.30
2023-04-10T21:12:18.316Z,42.23
2023-04-10T21:14:47.052Z,42.40
2023-04-10T21:17:20.391Z,42.52
2023-04-10T21:20:12.375Z,43.28
2023-04-10T21:23:04.570Z,42.73
2023-04-10T21:25:34.218Z,42.52
2023-04-10T21:28:03.697Z,42.55
2023-04-10T21:30:33.900Z,42.52
2023-04-10T21:33:04.980Z,42.46
2023-04-10T21:35:34.592Z,42.35
2023-04-10T21:38:03.619Z,42.32
2023-04-10T21:40:35.793Z,42.30
2023-04-10T21:43:06.079Z,42.29
2023-04-10T21:45:38.474Z,42.34
2023-04-10T21:48:08.706Z,42.31
2023-04-10T21:50:39.966Z,42.04
2023-04-10T21:53:10.443Z,41.89
2023-04-10T21:55:41.052Z,41.80
2023-04-10T21:58:11.792Z,41.79
2023-04-10T22:00:42.675Z,41.77
2023-04-10T22:03:12.820Z,41.85
2023-04-10T22:05:47.829Z,41.76
2023-04-10T22:08:25.623Z,41.82
2023-04-10T22:11:02.230Z,41.81
2023-04-10T22:13:33.142Z,41.79
2023-04-10T22:16:07.461Z,41.73
2023-04-10T22:18:36.536Z,41.86
2023-04-10T22:21:06.478Z,41.73
2023-04-10T22:23:36.947Z,41.69
2023-04-10T22:26:06.852Z,41.66
2023-04-10T22:28:35.766Z,41.73
2023-04-10T22:31:04.604Z,42.84
2023-04-10T22:33:34.611Z,43.13
2023-04-10T22:36:05.030Z,43.30
2023-04-10T22:38:34.906Z,43.21
2023-04-10T22:41:04.919Z,42.29
2023-04-10T22:43:35.790Z,41.96
2023-04-10T22:46:04.807Z,41.62
2023-04-10T22:48:35.150Z,41.61
2023-04-10T22:51:04.669Z,42.70
2023-04-10T22:53:34.732Z,42.96
2023-04-10T22:56:12.143Z,43.09
2023-04-10T22:58:41.197Z,42.87
2023-04-10T23:01:12.417Z,42.77
2023-04-10T23:03:41.424Z,42.80
2023-04-10T23:06:10.558Z,42.76
2023-04-10T23:08:40.050Z,42.72
2023-04-10T23:11:09.775Z,42.80
2023-04-10T23:13:39.939Z,42.61
2023-04-10T23:16:10.447Z,41.55
2023-04-10T23:18:39.419Z,41.15
2023-04-10T23:21:22.692Z,41.12
2023-04-10T23:23:51.803Z,40.84
2023-04-10T23:26:20.951Z,40.87
2023-04-10T23:28:50.914Z,40.72
2023-04-10T23:31:20.610Z,40.86
2023-04-10T23:33:50.930Z,40.74
2023-04-10T23:36:20.420Z,40.63
2023-04-10T23:38:48.746Z,40.63
2023-04-10T23:41:18.385Z,40.60
2023-04-10T23:43:48.438Z,40.53
2023-04-10T23:46:17.653Z,40.37
2023-04-10T23:48:47.385Z,40.30
2023-04-10T23:51:16.393Z,40.32
2023-04-10T23:53:46.385Z,40.25
2023-04-10T23:56:15.727Z,40.02
2023-04-10T23:58:44.968Z,39.98
